Time;durP1;ratioP1;P1;durP2;ratioP2;P2;SDS_P1;SDS_P2;PMS_P1;PMS_P2;Temp;Humidity;BMP_temperature;BMP_pressure;BME280_temperature;BME280_humidity;BME280_pressure;Samples;Min_cycle;Max_cycle;Signal;HPM_P1;HPM_P2
2021/08/30 00:02:19;;;;;;;4.63;4.23;;;16.00;99.90;;;;;;5033538;28;20408;-50
2021/08/30 00:04:44;;;;;;;6.03;5.53;;;16.10;99.90;;;;;;5033472;28;20186;-49
2021/08/30 00:07:10;;;;;;;6.33;5.73;;;16.00;99.90;;;;;;5033467;28;20180;-50
2021/08/30 00:09:36;;;;;;;7.20;6.50;;;16.00;99.90;;;;;;5033660;28;20626;-49
2021/08/30 00:12:02;;;;;;;6.53;5.97;;;16.00;99.90;;;;;;5033019;28;20583;-50
2021/08/30 00:14:27;;;;;;;7.50;6.90;;;16.10;99.90;;;;;;5033512;28;20202;-50
2021/08/30 00:16:53;;;;;;;7.10;6.50;;;16.10;99.90;;;;;;5022558;28;20447;-49
2021/08/30 00:19:18;;;;;;;7.23;6.60;;;16.10;99.90;;;;;;5013590;28;20637;-50
2021/08/30 00:21:44;;;;;;;8.27;7.53;;;16.10;99.90;;;;;;5029418;28;20172;-50
2021/08/30 00:24:09;;;;;;;9.93;9.13;;;15.90;99.90;;;;;;5053038;28;20275;-50
2021/08/30 00:26:35;;;;;;;9.40;8.60;;;15.90;99.90;;;;;;5053122;28;20173;-49
2021/08/30 00:29:01;;;;;;;8.37;7.67;;;16.00;99.90;;;;;;5053491;28;20175;-50
2021/08/30 00:31:26;;;;;;;7.47;6.87;;;15.90;99.90;;;;;;5052228;28;20167;-50
2021/08/30 00:33:54;;;;;;;10.80;9.80;;;15.90;99.90;;;;;;5052958;28;20215;-50
2021/08/30 00:36:19;;;;;;;9.87;8.97;;;16.10;99.90;;;;;;5053321;28;20257;-49
2021/08/30 00:38:45;;;;;;;9.20;8.40;;;16.10;99.90;;;;;;5053119;28;20505;-48
2021/08/30 00:41:13;;;;;;;8.57;7.87;;;16.20;99.90;;;;;;5043765;28;20670;-49
2021/08/30 00:43:38;;;;;;;7.47;6.90;;;16.20;99.90;;;;;;5033245;28;20273;-52
2021/08/30 00:46:05;;;;;;;9.70;8.90;;;16.10;99.90;;;;;;5033365;28;20874;-49
2021/08/30 00:48:31;;;;;;;9.07;8.33;;;16.10;99.90;;;;;;5033049;28;20166;-52
2021/08/30 00:50:57;;;;;;;9.30;8.50;;;16.20;99.90;;;;;;5033546;28;20473;-49
2021/08/30 00:53:23;;;;;;;10.10;9.30;;;16.10;99.90;;;;;;5033165;28;20228;-50
2021/08/30 00:55:49;;;;;;;9.80;9.00;;;16.00;99.90;;;;;;5033174;28;20451;-50
2021/08/30 00:58:15;;;;;;;8.80;8.10;;;16.10;99.90;;;;;;5032774;28;20697;-50
2021/08/30 01:00:40;;;;;;;8.83;8.07;;;16.00;99.90;;;;;;5032976;28;20245;-53
2021/08/30 01:03:06;;;;;;;9.00;8.30;;;15.90;99.90;;;;;;5032763;28;20634;-53
2021/08/30 01:05:32;;;;;;;10.00;9.20;;;15.80;99.90;;;;;;5032886;28;20258;-50
2021/08/30 01:08:07;;;;;;;11.67;10.67;;;15.80;99.90;;;;;;5033144;28;20215;-51
2021/08/30 01:10:54;;;;;;;10.57;9.70;;;16.10;99.90;;;;;;5033412;28;20170;-51
2021/08/30 01:13:31;;;;;;;9.33;8.63;;;16.10;99.90;;;;;;5032539;28;20395;-49
2021/08/30 01:16:00;;;;;;;9.53;8.73;;;16.10;99.90;;;;;;5033126;28;20448;-53
2021/08/30 01:18:30;;;;;;;9.17;8.40;;;15.80;99.90;;;;;;5032673;28;20498;-52
2021/08/30 01:21:18;;;;;;;11.13;10.23;;;15.90;99.90;;;;;;5026001;28;20420;-50
2021/08/30 01:23:49;;;;;;;10.60;9.70;;;15.90;99.90;;;;;;5013141;28;20432;-51
2021/08/30 01:26:16;;;;;;;11.50;10.50;;;15.80;99.90;;;;;;5012976;28;20492;-50
2021/08/30 01:28:52;;;;;;;11.30;10.40;;;15.90;99.90;;;;;;5013097;28;20402;-52
2021/08/30 01:31:25;;;;;;;9.10;8.40;;;15.90;99.90;;;;;;5013345;28;20393;-51
2021/08/30 01:33:52;;;;;;;10.53;9.63;;;15.90;99.90;;;;;;5014685;28;20520;-50
2021/08/30 01:36:19;;;;;;;11.37;10.47;;;15.80;99.90;;;;;;5013045;28;20464;-53
2021/08/30 01:38:46;;;;;;;9.87;8.97;;;15.90;99.90;;;;;;5012861;28;20403;-51
2021/08/30 01:41:16;;;;;;;10.23;9.33;;;16.00;99.90;;;;;;5021743;28;20416;-57
2021/08/30 01:43:46;;;;;;;10.30;9.40;;;16.00;99.90;;;;;;5016244;28;20414;-49
2021/08/30 01:46:14;;;;;;;9.50;8.70;;;15.90;99.90;;;;;;5016164;28;20419;-49
2021/08/30 01:48:48;;;;;;;8.80;8.00;;;15.90;99.90;;;;;;5014940;28;20421;-49
2021/08/30 01:51:16;;;;;;;12.00;10.67;;;16.00;99.90;;;;;;5016371;28;20398;-50
2021/08/30 01:53:43;;;;;;;8.60;7.97;;;16.00;99.90;;;;;;5016012;28;20474;-49
2021/08/30 01:56:09;;;;;;;9.53;8.80;;;16.00;99.90;;;;;;5016035;28;21004;-48
2021/08/30 02:01:00;;;;;;;9.50;8.70;;;15.80;99.90;;;;;;5016195;28;20410;-50
2021/08/30 02:03:30;;;;;;;10.90;10.00;;;15.90;99.90;;;;;;5015581;28;20162;-50
2021/08/30 02:05:56;;;;;;;9.83;8.93;;;16.10;99.90;;;;;;5015830;28;20215;-50
2021/08/30 02:08:23;;;;;;;9.80;9.00;;;16.00;99.90;;;;;;5016103;28;20449;-48
2021/08/30 02:10:51;;;;;;;9.47;8.57;;;15.90;99.90;;;;;;5015721;28;20172;-49
2021/08/30 02:13:18;;;;;;;11.00;10.00;;;15.90;99.90;;;;;;5032065;28;20418;-48
2021/08/30 02:15:46;;;;;;;9.57;8.67;;;16.00;99.90;;;;;;5035373;28;20474;-50
2021/08/30 02:18:32;;;;;;;9.77;9.00;;;16.00;99.90;;;;;;5035199;28;20410;-49
2021/08/30 02:21:04;;;;;;;9.27;8.47;;;15.80;99.90;;;;;;5035636;28;20424;-49
2021/08/30 02:23:34;;;;;;;8.53;7.83;;;15.70;99.90;;;;;;5032355;28;20421;-49
2021/08/30 02:26:10;;;;;;;10.50;9.60;;;15.70;99.90;;;;;;5015730;28;20469;-50
2021/08/30 02:28:36;;;;;;;10.10;9.30;;;15.80;99.90;;;;;;5015271;28;20388;-50
2021/08/30 02:31:02;;;;;;;9.63;8.80;;;15.70;99.90;;;;;;5015623;28;20424;-50
2021/08/30 02:33:29;;;;;;;12.10;11.10;;;15.70;99.90;;;;;;5014918;28;20523;-49
2021/08/30 02:36:02;;;;;;;12.00;10.77;;;15.80;99.90;;;;;;5015303;28;20450;-51
2021/08/30 02:38:29;;;;;;;10.70;9.80;;;15.70;99.90;;;;;;5015543;28;20399;-48
2021/08/30 02:40:55;;;;;;;11.97;10.97;;;15.60;99.90;;;;;;5015496;28;20404;-49
2021/08/30 02:43:21;;;;;;;12.83;11.73;;;15.60;99.90;;;;;;5031961;28;20423;-48
2021/08/30 02:45:47;;;;;;;9.90;9.10;;;15.60;99.90;;;;;;5034880;28;20401;-49
2021/08/30 02:48:13;;;;;;;10.77;9.87;;;15.70;99.90;;;;;;5034653;28;20221;-50
2021/08/30 02:50:40;;;;;;;11.60;10.57;;;15.80;99.90;;;;;;5034771;28;20406;-56
2021/08/30 02:53:06;;;;;;;9.97;9.27;;;15.80;99.90;;;;;;5034245;28;20461;-58
2021/08/30 02:55:32;;;;;;;9.97;9.17;;;15.80;99.90;;;;;;5035306;28;20451;-49
2021/08/30 02:58:00;;;;;;;9.17;8.37;;;15.80;99.90;;;;;;5034397;28;20399;-50
2021/08/30 03:00:26;;;;;;;9.20;8.43;;;15.80;99.90;;;;;;5034886;28;20409;-51
2021/08/30 03:02:52;;;;;;;8.40;7.70;;;15.70;99.90;;;;;;5034411;28;20417;-50
2021/08/30 03:05:18;;;;;;;7.33;6.73;;;15.60;99.90;;;;;;5034361;28;20431;-51
2021/08/30 03:07:45;;;;;;;8.27;7.57;;;15.50;99.90;;;;;;5034497;28;20520;-49
2021/08/30 03:10:11;;;;;;;9.50;8.63;;;15.50;99.90;;;;;;5034436;28;20201;-51
2021/08/30 03:12:41;;;;;;;6.80;6.30;;;15.50;99.90;;;;;;5034004;28;20409;-49
2021/08/30 03:15:11;;;;;;;7.80;7.10;;;15.50;99.90;;;;;;5034230;28;20185;-49
2021/08/30 03:17:38;;;;;;;7.90;7.20;;;15.50;99.90;;;;;;5034384;28;20415;-51
2021/08/30 03:20:06;;;;;;;6.07;5.50;;;15.40;99.90;;;;;;5034272;28;20766;-50
2021/08/30 03:22:34;;;;;;;6.93;6.43;;;15.40;99.90;;;;;;5034433;28;20498;-50
2021/08/30 03:25:02;;;;;;;5.70;5.30;;;15.40;99.90;;;;;;5034106;28;20425;-51
2021/08/30 03:27:29;;;;;;;5.37;4.97;;;15.40;99.90;;;;;;5034151;28;20433;-49
2021/08/30 03:29:55;;;;;;;6.00;5.50;;;15.40;99.90;;;;;;5034166;28;20812;-49
2021/08/30 03:32:22;;;;;;;6.80;6.23;;;15.40;99.90;;;;;;5033808;28;20430;-52
2021/08/30 03:34:49;;;;;;;4.53;4.23;;;15.40;99.90;;;;;;5033811;28;20535;-49
2021/08/30 03:37:15;;;;;;;5.37;4.97;;;15.30;99.90;;;;;;5032721;28;20422;-53
2021/08/30 03:39:45;;;;;;;7.10;5.40;;;15.30;99.90;;;;;;5034202;28;20397;-49
2021/08/30 03:42:11;;;;;;;5.83;5.43;;;15.40;99.90;;;;;;5033530;28;20936;-51
2021/08/30 03:44:38;;;;;;;6.83;6.23;;;15.50;99.90;;;;;;5033735;28;20463;-50
2021/08/30 03:47:06;;;;;;;6.17;5.67;;;15.40;99.90;;;;;;5033800;28;20394;-49
2021/08/30 03:49:33;;;;;;;7.53;6.93;;;15.60;99.90;;;;;;5033693;28;20443;-50
2021/08/30 03:52:00;;;;;;;7.40;6.80;;;15.50;99.90;;;;;;5034019;28;20765;-51
2021/08/30 03:54:26;;;;;;;8.50;7.70;;;15.60;99.90;;;;;;5033677;28;20416;-49
2021/08/30 03:56:54;;;;;;;6.90;6.20;;;15.50;99.90;;;;;;5033086;28;20482;-49
2021/08/30 03:59:20;;;;;;;9.00;8.20;;;15.50;99.90;;;;;;5033708;28;20498;-51
2021/08/30 04:01:48;;;;;;;8.93;8.03;;;15.50;99.90;;;;;;5033568;28;20416;-50
2021/08/30 04:04:19;;;;;;;8.57;7.77;;;15.60;99.90;;;;;;5033574;28;20945;-50
2021/08/30 04:06:45;;;;;;;8.40;7.60;;;15.60;99.90;;;;;;5033663;28;20915;-49
2021/08/30 04:09:15;;;;;;;10.00;9.07;;;15.60;99.90;;;;;;5033737;28;20406;-51
2021/08/30 04:11:43;;;;;;;8.57;7.70;;;15.50;99.90;;;;;;5031886;28;20541;-53
2021/08/30 04:14:11;;;;;;;10.90;9.90;;;15.60;99.90;;;;;;5024495;28;20490;-53
2021/08/30 04:16:36;;;;;;;8.87;7.57;;;15.50;99.90;;;;;;5013609;28;20444;-51
2021/08/30 04:19:02;;;;;;;9.83;8.93;;;15.50;99.90;;;;;;5014129;28;20735;-48
2021/08/30 04:21:27;;;;;;;9.47;8.63;;;15.50;99.90;;;;;;5016206;28;20171;-48
2021/08/30 04:23:53;;;;;;;10.47;9.47;;;15.40;99.90;;;;;;5013470;28;20191;-49
2021/08/30 04:26:19;;;;;;;10.83;9.87;;;15.50;99.90;;;;;;5013217;28;20204;-52
2021/08/30 04:28:44;;;;;;;11.60;10.57;;;15.40;99.90;;;;;;5013224;28;20714;-50
2021/08/30 04:31:10;;;;;;;12.63;11.30;;;15.60;99.90;;;;;;5013439;28;20172;-48
2021/08/30 04:33:35;;;;;;;12.23;9.93;;;15.60;99.90;;;;;;5013190;28;20349;-49
2021/08/30 04:36:01;;;;;;;10.37;9.47;;;15.60;99.90;;;;;;5013265;28;20193;-49
2021/08/30 04:38:27;;;;;;;12.10;11.00;;;15.60;99.90;;;;;;5013560;28;20178;-49
2021/08/30 04:40:52;;;;;;;11.80;10.60;;;15.60;99.90;;;;;;5013092;28;20176;-51
2021/08/30 04:43:18;;;;;;;13.10;11.83;;;15.70;99.90;;;;;;5029594;28;20181;-48
2021/08/30 04:45:43;;;;;;;11.57;10.47;;;15.70;99.90;;;;;;5032996;28;20174;-50
2021/08/30 04:48:09;;;;;;;11.70;10.60;;;15.70;99.90;;;;;;5033218;28;20171;-49
2021/08/30 04:50:35;;;;;;;14.53;13.07;;;15.70;99.90;;;;;;5033175;28;20175;-50
2021/08/30 04:53:01;;;;;;;13.93;12.47;;;15.80;99.90;;;;;;5033485;28;20175;-50
2021/08/30 04:55:26;;;;;;;11.73;10.53;;;15.80;99.90;;;;;;5032741;28;20702;-48
2021/08/30 04:57:52;;;;;;;13.63;12.33;;;15.80;99.90;;;;;;5032366;28;20413;-51
2021/08/30 05:00:18;;;;;;;13.00;11.60;;;15.80;99.90;;;;;;5033093;28;20170;-49
2021/08/30 05:02:43;;;;;;;17.57;15.30;;;15.70;99.90;;;;;;5033134;28;20194;-51
2021/08/30 05:05:09;;;;;;;12.33;11.13;;;15.80;99.90;;;;;;5032748;28;20228;-49
2021/08/30 05:07:35;;;;;;;13.50;12.23;;;15.80;99.90;;;;;;5033210;28;20170;-48
2021/08/30 05:10:00;;;;;;;10.67;9.60;;;15.80;99.90;;;;;;5032766;28;20182;-50
2021/08/30 05:12:27;;;;;;;10.47;9.47;;;15.70;99.90;;;;;;5032845;28;20670;-49
2021/08/30 05:14:56;;;;;;;15.40;9.83;;;15.80;99.90;;;;;;5032398;28;20756;-56
2021/08/30 05:17:25;;;;;;;12.33;11.03;;;15.80;99.90;;;;;;5034940;28;20905;-56
2021/08/30 05:19:50;;;;;;;9.50;8.60;;;15.70;99.90;;;;;;5036348;28;20414;-57
2021/08/30 05:22:16;;;;;;;9.83;8.93;;;15.80;99.90;;;;;;5036418;28;20419;-56
2021/08/30 05:24:42;;;;;;;9.83;8.57;;;15.80;99.90;;;;;;5036608;28;20303;-49
2021/08/30 05:27:08;;;;;;;11.60;10.47;;;15.90;99.90;;;;;;5035810;28;20239;-53
2021/08/30 05:29:34;;;;;;;13.97;11.47;;;15.80;99.90;;;;;;5036089;28;20920;-49
2021/08/30 05:31:59;;;;;;;12.97;11.60;;;15.70;99.90;;;;;;5036233;28;20178;-51
2021/08/30 05:34:25;;;;;;;14.20;12.90;;;15.70;99.90;;;;;;5036036;28;20200;-49
2021/08/30 05:36:50;;;;;;;11.57;10.37;;;15.80;99.90;;;;;;5036675;28;20669;-50
2021/08/30 05:39:16;;;;;;;12.63;11.33;;;15.70;99.90;;;;;;5036345;28;20298;-51
2021/08/30 05:41:42;;;;;;;14.50;13.17;;;15.70;99.90;;;;;;5035813;28;20237;-50
2021/08/30 05:44:08;;;;;;;10.57;9.63;;;15.70;99.90;;;;;;5035692;28;20215;-50
2021/08/30 05:46:34;;;;;;;14.77;13.30;;;15.80;99.90;;;;;;5035998;28;20179;-50
2021/08/30 05:48:59;;;;;;;11.23;10.00;;;15.70;99.90;;;;;;5036557;28;20776;-51
2021/08/30 05:51:25;;;;;;;13.67;12.27;;;15.80;99.90;;;;;;5035894;28;20172;-50
2021/08/30 05:53:51;;;;;;;11.80;10.70;;;15.80;99.90;;;;;;5035820;28;20194;-54
2021/08/30 05:56:16;;;;;;;15.27;13.70;;;15.80;99.90;;;;;;5035746;28;20206;-52
2021/08/30 05:58:42;;;;;;;11.67;10.37;;;16.00;99.90;;;;;;5035638;28;20165;-52
2021/08/30 06:01:07;;;;;;;12.90;11.60;;;15.90;99.90;;;;;;5035949;28;20639;-49
2021/08/30 06:03:33;;;;;;;12.77;11.50;;;16.00;99.90;;;;;;5035866;28;20185;-51
2021/08/30 06:05:59;;;;;;;11.57;10.47;;;15.90;99.90;;;;;;5035785;28;20173;-52
2021/08/30 06:08:24;;;;;;;14.03;12.50;;;15.90;99.90;;;;;;5035679;28;20167;-48
2021/08/30 06:10:50;;;;;;;12.23;11.10;;;16.10;99.90;;;;;;5035995;28;20659;-49
2021/08/30 06:13:16;;;;;;;13.13;11.97;;;16.00;99.90;;;;;;5035424;28;20278;-49
2021/08/30 06:15:42;;;;;;;11.70;10.60;;;16.00;99.90;;;;;;5035458;28;20196;-53
2021/08/30 06:18:08;;;;;;;13.10;11.90;;;16.00;99.90;;;;;;5035854;28;20402;-49
2021/08/30 06:20:33;;;;;;;11.73;10.63;;;16.10;99.90;;;;;;5035631;28;20479;-49
2021/08/30 06:22:59;;;;;;;12.00;10.77;;;16.10;99.90;;;;;;5035188;28;20520;-49
2021/08/30 06:25:25;;;;;;;11.20;10.10;;;16.10;99.90;;;;;;5035286;28;20601;-52
2021/08/30 06:27:51;;;;;;;12.10;10.90;;;16.40;99.90;;;;;;5033745;28;20177;-49
2021/08/30 06:30:16;;;;;;;13.07;11.57;;;16.50;99.90;;;;;;5028072;28;20181;-51
2021/08/30 06:32:42;;;;;;;12.17;11.07;;;16.50;99.90;;;;;;5015629;28;20171;-49
2021/08/30 06:35:08;;;;;;;13.40;12.10;;;16.50;99.90;;;;;;5015281;28;20201;-50
2021/08/30 06:37:37;;;;;;;11.80;10.70;;;16.40;99.90;;;;;;5015896;28;20167;-49
2021/08/30 06:40:03;;;;;;;12.70;11.40;;;16.50;99.90;;;;;;5014119;28;20413;-50
2021/08/30 06:42:28;;;;;;;12.17;10.77;;;16.80;99.90;;;;;;5024748;28;20778;-49
2021/08/30 06:44:54;;;;;;;9.83;8.93;;;16.80;99.90;;;;;;5033698;28;20437;-50
2021/08/30 06:47:19;;;;;;;12.10;10.90;;;16.80;99.90;;;;;;5035125;28;20204;-49
2021/08/30 06:49:45;;;;;;;10.40;9.40;;;16.80;99.90;;;;;;5035157;28;20175;-50
2021/08/30 06:52:11;;;;;;;10.47;9.50;;;16.90;99.90;;;;;;5033971;28;20232;-49
2021/08/30 06:54:36;;;;;;;10.20;9.20;;;16.60;99.90;;;;;;5035120;28;20276;-49
2021/08/30 06:57:02;;;;;;;10.57;9.57;;;16.70;99.90;;;;;;5034829;28;20190;-49
2021/08/30 06:59:28;;;;;;;12.00;10.90;;;16.70;99.90;;;;;;5034644;28;20170;-49
2021/08/30 07:01:54;;;;;;;11.70;10.60;;;16.80;99.90;;;;;;5035110;28;20412;-49
2021/08/30 07:04:19;;;;;;;10.67;9.67;;;16.80;99.90;;;;;;5034905;28;20594;-49
2021/08/30 07:06:45;;;;;;;11.50;10.30;;;16.90;99.90;;;;;;5026201;28;20289;-50
2021/08/30 07:09:10;;;;;;;12.37;11.20;;;17.00;99.90;;;;;;5014942;28;20172;-50
2021/08/30 07:11:36;;;;;;;11.17;9.20;;;16.90;99.90;;;;;;5017511;28;20272;-49
2021/08/30 07:14:02;;;;;;;11.00;9.90;;;16.90;99.90;;;;;;5034257;28;20196;-49
2021/08/30 07:16:28;;;;;;;10.47;9.40;;;16.80;99.90;;;;;;5034656;28;20213;-50
2021/08/30 07:18:54;;;;;;;11.37;10.37;;;16.60;99.90;;;;;;5034672;28;20159;-51
2021/08/30 07:21:19;;;;;;;12.00;10.73;;;16.70;99.90;;;;;;5034364;28;20463;-50
2021/08/30 07:23:46;;;;;;;10.83;9.80;;;16.90;99.90;;;;;;5034480;28;20826;-51
2021/08/30 07:26:11;;;;;;;10.20;9.30;;;17.00;99.90;;;;;;5034440;28;20258;-53
2021/08/30 07:28:37;;;;;;;12.10;10.90;;;17.00;99.90;;;;;;5033885;28;20862;-52
2021/08/30 07:31:02;;;;;;;12.27;11.17;;;17.10;99.90;;;;;;5034772;28;20529;-50
2021/08/30 07:33:28;;;;;;;10.73;9.83;;;17.20;99.90;;;;;;5034234;28;20254;-49
2021/08/30 07:35:54;;;;;;;11.33;10.07;;;17.00;99.90;;;;;;5057542;22;20679;-58
2021/08/30 07:38:19;;;;;;;12.50;11.20;;;17.10;99.90;;;;;;5024041;28;20174;-60
2021/08/30 07:40:45;;;;;;;11.27;10.27;;;17.10;99.90;;;;;;5014121;28;20632;-59
2021/08/30 07:43:11;;;;;;;11.40;10.30;;;17.10;99.90;;;;;;5029448;28;20183;-58
2021/08/30 07:45:36;;;;;;;11.10;10.10;;;17.10;99.90;;;;;;5026384;28;20202;-58
2021/08/30 07:48:02;;;;;;;10.90;9.83;;;17.20;99.90;;;;;;4999890;28;20184;-59
2021/08/30 07:50:28;;;;;;;8.93;8.07;;;17.30;99.90;;;;;;4994586;28;20176;-55
2021/08/30 07:52:54;;;;;;;11.40;10.30;;;17.30;99.90;;;;;;4994447;28;20887;-57
2021/08/30 07:55:19;;;;;;;10.77;9.77;;;17.30;99.90;;;;;;4994219;28;20208;-59
2021/08/30 07:57:45;;;;;;;10.47;9.40;;;17.20;99.90;;;;;;4993991;28;20595;-60
2021/08/30 08:00:12;;;;;;;9.80;9.00;;;17.20;99.90;;;;;;4993955;28;20511;-58
2021/08/30 08:02:38;;;;;;;11.57;10.47;;;17.20;99.90;;;;;;4993993;28;20175;-57
2021/08/30 08:05:04;;;;;;;9.97;8.93;;;17.20;99.90;;;;;;4976314;28;20493;-60
2021/08/30 08:07:30;;;;;;;11.70;10.53;;;17.00;99.90;;;;;;4994191;28;20219;-59
2021/08/30 08:09:55;;;;;;;10.10;9.20;;;16.90;99.90;;;;;;4993931;28;20410;-59
2021/08/30 08:12:21;;;;;;;11.30;10.30;;;16.90;99.90;;;;;;4993834;28;20653;-54
2021/08/30 08:14:46;;;;;;;9.93;9.07;;;16.90;99.90;;;;;;4998204;28;20175;-59
2021/08/30 08:17:12;;;;;;;10.97;10.03;;;17.00;99.90;;;;;;5013402;28;20209;-59
2021/08/30 08:19:38;;;;;;;9.67;8.77;;;17.10;99.90;;;;;;4995965;28;20171;-60
2021/08/30 08:22:03;;;;;;;10.67;9.67;;;17.10;99.90;;;;;;5013615;28;20161;-59
2021/08/30 08:24:29;;;;;;;10.77;9.77;;;16.90;99.90;;;;;;5014295;28;20171;-59
2021/08/30 08:26:55;;;;;;;13.43;12.13;;;16.90;99.90;;;;;;5013304;28;20686;-60
2021/08/30 08:29:22;;;;;;;12.73;11.53;;;17.10;99.90;;;;;;5013484;28;20171;-57
2021/08/30 08:31:48;;;;;;;10.97;10.07;;;17.30;99.90;;;;;;5012858;28;20414;-57
2021/08/30 08:34:13;;;;;;;11.80;10.70;;;17.30;99.90;;;;;;5013216;28;20410;-60
2021/08/30 08:36:40;;;;;;;11.57;9.10;;;17.20;99.90;;;;;;5013019;28;20280;-60
2021/08/30 08:39:07;;;;;;;9.47;8.57;;;17.20;99.90;;;;;;5013404;28;20172;-60
2021/08/30 08:41:35;;;;;;;10.57;9.67;;;17.30;99.90;;;;;;5013245;28;20409;-60
2021/08/30 08:44:04;;;;;;;9.37;8.43;;;17.10;99.90;;;;;;4996467;28;20402;-60
2021/08/30 08:46:31;;;;;;;9.37;8.57;;;17.10;99.90;;;;;;5012951;28;20438;-60
2021/08/30 08:48:57;;;;;;;8.20;7.50;;;17.10;99.90;;;;;;5013174;28;20425;-59
2021/08/30 08:51:23;;;;;;;8.40;7.70;;;17.10;99.90;;;;;;5014109;28;20778;-60
2021/08/30 08:53:49;;;;;;;8.43;7.67;;;17.00;99.90;;;;;;5017419;28;20410;-56
2021/08/30 08:56:16;;;;;;;9.73;8.83;;;16.80;99.90;;;;;;5016868;28;20446;-59
2021/08/30 08:58:42;;;;;;;9.87;8.97;;;16.80;99.90;;;;;;5016559;28;20206;-58
2021/08/30 09:01:11;;;;;;;8.17;7.37;;;16.90;99.90;;;;;;5016516;28;20525;-60
2021/08/30 09:03:46;;;;;;;8.93;8.07;;;16.90;99.90;;;;;;5017582;28;20184;-60
2021/08/30 09:06:23;;;;;;;8.93;8.17;;;17.10;99.90;;;;;;5017027;28;20997;-55
2021/08/30 09:08:56;;;;;;;9.10;8.30;;;17.30;99.90;;;;;;5017144;28;20430;-54
2021/08/30 09:11:22;;;;;;;8.80;8.10;;;17.70;99.90;;;;;;5016949;28;20867;-60
2021/08/30 09:13:56;;;;;;;8.17;7.40;;;18.10;99.90;;;;;;5017066;28;20442;-59
2021/08/30 09:16:24;;;;;;;8.10;7.30;;;18.40;99.90;;;;;;5016196;28;20466;-59
2021/08/30 09:18:50;;;;;;;8.63;7.83;;;18.60;99.90;;;;;;5016596;28;20407;-59
2021/08/30 09:21:17;;;;;;;9.07;8.33;;;18.70;99.90;;;;;;5016411;28;20413;-60
2021/08/30 09:23:45;;;;;;;8.50;7.60;;;18.60;99.90;;;;;;5016473;28;20411;-60
2021/08/30 09:26:19;;;;;;;10.40;9.40;;;18.50;99.90;;;;;;5016249;28;20431;-60
2021/08/30 09:28:55;;;;;;;10.67;9.67;;;18.50;99.90;;;;;;5016284;28;20414;-59
2021/08/30 09:31:21;;;;;;;9.93;9.03;;;18.50;99.90;;;;;;5016252;28;20433;-58
2021/08/30 09:33:53;;;;;;;11.13;10.20;;;18.60;99.90;;;;;;5016398;28;20415;-60
2021/08/30 09:36:20;;;;;;;9.43;8.53;;;18.50;99.90;;;;;;5016162;28;20462;-60
2021/08/30 09:38:53;;;;;;;9.63;8.70;;;18.40;99.90;;;;;;5016346;28;20410;-56
2021/08/30 09:41:19;;;;;;;9.70;8.80;;;18.70;99.90;;;;;;5016419;28;20414;-58
2021/08/30 09:43:45;;;;;;;10.40;9.03;;;19.00;99.90;;;;;;5016009;28;20502;-57
2021/08/30 09:46:11;;;;;;;11.30;9.90;;;18.90;99.90;;;;;;5015715;28;20532;-60
2021/08/30 09:48:41;;;;;;;11.07;10.07;;;18.70;99.90;;;;;;5016130;28;20184;-56
2021/08/30 09:51:07;;;;;;;11.13;10.03;;;18.60;99.90;;;;;;5016237;28;20239;-59
2021/08/30 09:53:34;;;;;;;12.50;11.30;;;18.40;99.90;;;;;;5016100;28;20522;-60
2021/08/30 09:56:00;;;;;;;11.97;10.70;;;18.20;99.90;;;;;;5016101;28;20208;-56
2021/08/30 09:58:27;;;;;;;12.53;11.30;;;18.00;99.90;;;;;;5015763;28;20465;-56
2021/08/30 10:01:03;;;;;;;13.00;11.47;;;18.10;99.90;;;;;;5015924;28;20411;-60
2021/08/30 10:03:38;;;;;;;13.93;12.53;;;18.20;99.90;;;;;;5015949;28;20418;-61
2021/08/30 10:06:04;;;;;;;13.97;12.63;;;18.00;99.90;;;;;;5015543;28;20426;-61
2021/08/30 10:08:30;;;;;;;12.13;10.83;;;17.80;99.90;;;;;;5015585;28;20501;-61
2021/08/30 10:10:56;;;;;;;12.97;11.73;;;17.70;99.90;;;;;;5015180;28;20673;-59
2021/08/30 10:13:22;;;;;;;15.17;13.60;;;17.80;99.90;;;;;;5015662;28;20515;-60
2021/08/30 10:15:52;;;;;;;14.37;12.97;;;17.90;99.90;;;;;;5015479;28;20462;-60
2021/08/30 10:18:19;;;;;;;14.00;12.60;;;17.90;99.90;;;;;;5015633;28;20908;-61
2021/08/30 10:20:45;;;;;;;15.80;12.97;;;18.00;99.90;;;;;;5015730;28;20482;-59
2021/08/30 10:23:11;;;;;;;13.70;12.30;;;18.00;99.90;;;;;;5015664;28;20414;-57
2021/08/30 10:25:39;;;;;;;14.87;13.53;;;17.90;99.90;;;;;;5015214;28;20433;-59
2021/08/30 10:28:11;;;;;;;15.10;13.70;;;17.90;99.90;;;;;;5014957;28;20438;-60
2021/08/30 10:30:39;;;;;;;15.53;14.03;;;17.80;99.90;;;;;;5015084;28;20470;-60
2021/08/30 10:33:09;;;;;;;16.03;14.23;;;17.60;99.90;;;;;;5015554;28;20783;-60
2021/08/30 10:35:38;;;;;;;16.90;15.40;;;17.60;99.90;;;;;;5015178;28;20998;-60
2021/08/30 10:38:18;;;;;;;15.60;14.00;;;17.50;99.90;;;;;;5019683;28;20454;-60
2021/08/30 10:40:50;;;;;;;13.80;12.50;;;17.50;99.90;;;;;;5001895;28;20959;-59
2021/08/30 10:43:17;;;;;;;16.53;14.93;;;17.50;99.90;;;;;;4995551;28;20806;-60
2021/08/30 10:45:56;;;;;;;13.97;12.60;;;17.30;99.90;;;;;;5007440;28;20798;-57
2021/08/30 10:48:33;;;;;;;14.30;12.80;;;17.50;99.90;;;;;;5015365;28;20425;-59
2021/08/30 10:50:59;;;;;;;15.33;13.40;;;17.70;99.90;;;;;;5015288;28;20474;-57
2021/08/30 10:53:25;;;;;;;14.00;12.50;;;17.90;99.90;;;;;;5015225;28;20522;-60
2021/08/30 10:56:01;;;;;;;12.37;11.17;;;17.80;99.90;;;;;;5014804;28;20696;-60
2021/08/30 10:58:27;;;;;;;14.47;12.97;;;17.70;99.90;;;;;;5014635;28;20390;-60
2021/08/30 11:00:55;;;;;;;13.60;12.10;;;17.80;99.90;;;;;;5014522;28;20399;-60
2021/08/30 11:03:25;;;;;;;13.70;12.40;;;17.90;99.90;;;;;;5015008;28;20403;-57
2021/08/30 11:06:02;;;;;;;13.63;12.20;;;18.00;99.90;;;;;;5015079;28;20427;-60
2021/08/30 11:08:28;;;;;;;13.60;12.20;;;17.90;99.90;;;;;;5014665;28;20398;-60
2021/08/30 11:11:06;;;;;;;12.00;10.77;;;18.10;99.90;;;;;;5014751;28;20766;-60
2021/08/30 11:13:31;;;;;;;11.53;10.43;;;18.10;99.90;;;;;;5014000;28;20395;-61
2021/08/30 11:15:57;;;;;;;11.60;10.60;;;18.30;99.90;;;;;;5013469;28;20450;-59
2021/08/30 11:18:22;;;;;;;10.87;9.80;;;18.60;99.90;;;;;;5014669;28;20170;-59
2021/08/30 11:20:48;;;;;;;12.53;10.57;;;18.70;99.90;;;;;;5014234;28;20250;-58
2021/08/30 11:23:15;;;;;;;10.57;9.57;;;18.90;99.90;;;;;;5014426;28;20171;-60
2021/08/30 11:25:41;;;;;;;9.37;8.47;;;19.00;99.90;;;;;;5014333;28;20180;-60
2021/08/30 11:28:18;;;;;;;8.77;8.00;;;18.90;99.90;;;;;;5014202;28;20415;-61
2021/08/30 11:30:44;;;;;;;9.00;8.23;;;19.00;99.90;;;;;;5014332;28;20160;-61
2021/08/30 11:33:22;;;;;;;8.93;8.10;;;19.00;99.90;;;;;;5014660;28;20442;-61
2021/08/30 11:35:48;;;;;;;8.33;7.53;;;19.20;99.90;;;;;;5014055;28;20865;-61
2021/08/30 11:38:13;;;;;;;7.93;7.13;;;19.30;99.90;;;;;;5014436;28;20410;-59
2021/08/30 11:40:39;;;;;;;10.20;9.27;;;19.30;99.90;;;;;;5013987;28;20399;-60
2021/08/30 11:43:15;;;;;;;7.67;6.97;;;19.40;99.90;;;;;;5014075;28;20511;-60
2021/08/30 11:45:42;;;;;;;9.40;8.33;;;19.50;99.90;;;;;;5013580;28;20195;-59
2021/08/30 11:48:15;;;;;;;11.00;9.53;;;19.50;99.90;;;;;;5013818;28;20442;-61
2021/08/30 11:50:41;;;;;;;11.07;9.77;;;19.30;99.90;;;;;;5013221;28;20423;-60
2021/08/30 11:53:12;;;;;;;9.63;8.63;;;18.90;99.90;;;;;;5014512;28;20911;-60
2021/08/30 11:55:39;;;;;;;13.07;9.63;;;18.80;99.90;;;;;;5013934;28;20455;-60
2021/08/30 11:58:04;;;;;;;9.83;8.83;;;18.80;99.90;;;;;;5013835;28;20792;-60
2021/08/30 12:00:31;;;;;;;10.17;9.13;;;18.80;99.90;;;;;;5013573;28;20457;-60
2021/08/30 12:03:11;;;;;;;13.17;11.20;;;19.10;99.90;;;;;;5013700;28;20175;-59
2021/08/30 12:05:37;;;;;;;13.03;11.57;;;18.90;99.90;;;;;;5013637;28;20430;-59
2021/08/30 12:08:03;;;;;;;10.97;9.90;;;19.00;99.90;;;;;;5014384;28;20411;-59
2021/08/30 12:10:30;;;;;;;10.87;9.77;;;19.10;99.90;;;;;;5013882;28;20499;-59
2021/08/30 12:15:34;;;;;;;11.73;10.53;;;19.10;99.90;;;;;;5013669;28;20524;-59
2021/08/30 12:18:01;;;;;;;13.03;11.33;;;18.90;99.90;;;;;;5013576;28;20445;-59
2021/08/30 12:20:44;;;;;;;11.67;10.57;;;18.60;99.90;;;;;;5013466;28;20419;-59
2021/08/30 12:23:17;;;;;;;11.53;10.33;;;18.50;99.90;;;;;;5013567;28;20380;-59
2021/08/30 12:25:43;;;;;;;11.30;10.13;;;18.50;99.90;;;;;;5013137;28;20430;-59
2021/08/30 12:28:13;;;;;;;13.00;11.60;;;18.60;99.90;;;;;;5013218;28;20914;-57
2021/08/30 12:30:50;;;;;;;11.70;10.53;;;18.70;99.90;;;;;;5013145;28;20404;-61
2021/08/30 12:33:21;;;;;;;13.77;12.47;;;18.80;99.90;;;;;;5013661;28;20395;-56
2021/08/30 12:35:53;;;;;;;11.50;10.30;;;18.60;99.90;;;;;;5013061;28;20467;-59
2021/08/30 12:38:20;;;;;;;11.50;10.47;;;18.70;99.90;;;;;;5013310;28;20476;-58
2021/08/30 12:40:49;;;;;;;11.43;10.30;;;18.70;99.90;;;;;;5013231;28;20449;-57
2021/08/30 12:43:16;;;;;;;11.90;10.83;;;18.70;99.90;;;;;;5013153;28;20407;-58